Time;durP1;ratioP1;P1;durP2;ratioP2;P2;SDS_P1;SDS_P2;PMS_P1;PMS_P2;Temp;Humidity;BMP_temperature;BMP_pressure;BME280_temperature;BME280_humidity;BME280_pressure;Samples;Min_cycle;Max_cycle;Signal;HPM_P1;HPM_P2
2022/03/02 00:00:06;;;;;;;;;50.00;38.75;;;;;10.70;48.23;101977.38;5060164;28;45164;-58
2022/03/02 00:02:32;;;;;;;;;41.75;35.00;;;;;10.68;48.17;101972.19;5058810;28;45962;-58
2022/03/02 00:04:57;;;;;;;;;53.50;41.25;;;;;10.63;48.42;101980.03;5060358;28;45345;-58
2022/03/02 00:07:23;;;;;;;;;49.25;38.00;;;;;10.60;48.37;101968.75;5059656;28;45611;-57
2022/03/02 00:09:48;;;;;;;;;58.00;40.50;;;;;10.60;48.30;101969.63;5059449;28;46252;-58
2022/03/02 00:12:14;;;;;;;;;63.75;43.00;;;;;10.60;48.99;101958.34;5059788;28;45360;-58
2022/03/02 00:14:39;;;;;;;;;53.75;39.75;;;;;10.55;48.85;101971.41;5060239;28;45670;-58
2022/03/02 00:17:05;;;;;;;;;47.25;36.00;;;;;10.52;49.04;101960.16;5059906;28;45228;-57
2022/03/02 00:19:30;;;;;;;;;55.00;42.00;;;;;10.50;48.95;101962.78;5059684;28;45912;-60
2022/03/02 00:21:56;;;;;;;;;53.75;42.00;;;;;10.49;48.61;101958.47;5059500;28;45189;-61
2022/03/02 00:24:21;;;;;;;;;53.25;41.00;;;;;10.46;48.94;101955.88;5059501;28;45235;-60
2022/03/02 00:26:47;;;;;;;;;47.75;38.75;;;;;10.44;48.82;101949.84;5059035;28;45157;-60
2022/03/02 00:29:12;;;;;;;;;51.75;40.25;;;;;10.42;49.26;101951.59;5060126;28;45613;-60
2022/03/02 00:31:37;;;;;;;;;55.50;41.25;;;;;10.39;48.84;101951.59;5059571;28;45310;-61
2022/03/02 00:34:03;;;;;;;;;50.50;36.75;;;;;10.34;48.90;101940.38;5059971;28;45247;-62
2022/03/02 00:36:31;;;;;;;;;52.50;39.25;;;;;10.32;49.25;101939.53;5059681;28;45221;-62
2022/03/02 00:38:56;;;;;;;;;41.50;36.25;;;;;10.28;49.37;101938.69;5075109;28;47425;-61
2022/03/02 00:41:22;;;;;;;;;56.50;43.25;;;;;10.28;49.27;101945.63;5091362;27;45557;-61
2022/03/02 00:43:48;;;;;;;;;55.75;39.50;;;;;10.27;49.74;101933.50;5059798;28;45322;-61
2022/03/02 00:46:14;;;;;;;;;55.00;39.50;;;;;10.24;49.48;101939.59;5058971;28;45352;-61
2022/03/02 00:48:39;;;;;;;;;53.50;43.50;;;;;10.21;49.50;101936.13;5059654;28;45353;-61
2022/03/02 00:51:05;;;;;;;;;57.75;40.25;;;;;10.18;50.01;101938.72;5059506;28;46346;-61
2022/03/02 00:53:31;;;;;;;;;60.00;43.75;;;;;10.16;49.72;101935.28;5059332;28;45260;-61
2022/03/02 00:55:56;;;;;;;;;58.25;42.75;;;;;10.15;50.10;101938.75;5058655;28;45500;-60
2022/03/02 00:58:22;;;;;;;;;51.00;41.00;;;;;10.13;50.33;101935.28;5059462;28;45478;-60
2022/03/02 01:00:47;;;;;;;;;53.75;40.25;;;;;10.10;50.70;101941.38;5059258;28;45373;-60
2022/03/02 01:03:12;;;;;;;;;53.50;40.25;;;;;10.06;50.32;101932.75;5059527;28;45259;-59
2022/03/02 01:05:39;;;;;;;;;47.00;38.50;;;;;10.08;50.20;101937.94;5059289;28;45547;-60
2022/03/02 01:08:05;;;;;;;;;51.75;42.00;;;;;10.07;50.64;101931.88;5059343;28;45461;-59
2022/03/02 01:10:31;;;;;;;;;59.00;44.75;;;;;10.04;50.65;101920.66;5057198;28;46071;-60
2022/03/02 01:12:56;;;;;;;;;54.25;40.50;;;;;10.02;51.09;101925.84;5057662;28;45702;-58
2022/03/02 01:15:22;;;;;;;;;54.00;40.50;;;;;9.97;50.96;101927.59;5058243;28;45508;-59
2022/03/02 01:17:47;;;;;;;;;57.75;43.00;;;;;9.96;50.55;101920.66;5058746;28;45439;-59
2022/03/02 01:20:12;;;;;;;;;53.75;40.25;;;;;9.94;50.55;101921.56;5058112;28;45403;-58
2022/03/02 01:22:39;;;;;;;;;51.75;39.25;;;;;9.92;51.02;101921.56;5058770;28;45331;-58
2022/03/02 01:25:07;;;;;;;;;52.50;40.25;;;;;9.91;50.67;101919.00;5058275;28;45310;-58
2022/03/02 01:27:32;;;;;;;;;50.75;40.75;;;;;9.90;51.27;101917.25;5057709;28;46114;-59
2022/03/02 01:29:57;;;;;;;;;45.00;37.25;;;;;9.89;51.10;101916.41;5058936;28;45354;-59
2022/03/02 01:32:23;;;;;;;;;61.25;43.00;;;;;9.89;50.97;101921.59;5059333;28;45247;-58
2022/03/02 01:34:49;;;;;;;;;47.50;38.50;;;;;9.89;50.97;101916.41;5059363;28;45216;-59
2022/03/02 01:37:16;;;;;;;;;55.50;38.50;;;;;9.90;51.16;101914.66;5062442;28;46420;-59
2022/03/02 01:39:42;;;;;;;;;54.75;41.00;;;;;9.89;50.81;101915.53;5061581;28;45710;-59
2022/03/02 01:42:08;;;;;;;;;49.25;39.25;;;;;9.89;51.44;101910.34;5062589;28;45470;-59
2022/03/02 01:44:34;;;;;;;;;57.00;44.25;;;;;9.88;50.86;101909.47;5061370;28;45434;-59
2022/03/02 01:47:00;;;;;;;;;52.50;39.75;;;;;9.87;51.09;101907.75;5061817;28;45546;-58
2022/03/02 01:49:25;;;;;;;;;53.25;40.25;;;;;9.89;51.31;101902.56;5062415;28;45248;-58
2022/03/02 01:51:51;;;;;;;;;56.50;45.00;;;;;9.89;51.13;101906.00;5061974;28;45444;-59
2022/03/02 01:54:16;;;;;;;;;53.50;41.00;;;;;9.87;50.85;101902.56;5061288;28;45335;-59
2022/03/02 01:56:42;;;;;;;;;60.50;43.25;;;;;9.88;51.18;101904.28;5061673;28;45587;-58
2022/03/02 01:59:07;;;;;;;;;56.75;43.50;;;;;9.86;51.01;101897.38;5062132;28;45207;-58
2022/03/02 02:01:33;;;;;;;;;59.75;41.50;;;;;9.86;51.43;101895.66;5062322;28;45240;-58
2022/03/02 02:03:59;;;;;;;;;59.75;42.25;;;;;9.87;51.61;101893.91;5061796;28;45437;-58
2022/03/02 02:06:25;;;;;;;;;57.00;43.75;;;;;9.87;50.94;101891.31;5062093;28;46938;-57
2022/03/02 02:08:52;;;;;;;;;54.00;42.75;;;;;9.86;51.39;101890.47;5059648;28;45177;-58
2022/03/02 02:11:18;;;;;;;;;58.00;44.00;;;;;9.89;50.75;101886.97;5061633;28;45406;-59
2022/03/02 02:13:44;;;;;;;;;57.75;42.00;;;;;9.89;51.72;101884.38;5061201;28;45323;-59
2022/03/02 02:16:09;;;;;;;;;53.50;40.25;;;;;9.90;51.04;101878.31;5061070;28;46303;-60
2022/03/02 02:18:35;;;;;;;;;48.00;31.25;;;;;9.90;50.98;101875.72;5061102;28;45378;-60
2022/03/02 02:21:10;;;;;;;;;62.75;46.50;;;;;9.89;51.10;101868.81;5061066;28;45378;-58
2022/03/02 02:23:36;;;;;;;;;56.75;39.25;;;;;9.87;51.51;101874.00;5061383;28;45435;-58
2022/03/02 02:26:03;;;;;;;;;51.75;35.50;;;;;9.85;51.48;101873.16;5055531;28;46572;-59
2022/03/02 02:28:30;;;;;;;;;60.50;43.00;;;;;9.82;51.11;101873.19;5061206;28;45876;-59
2022/03/02 02:30:58;;;;;;;;;44.75;38.25;;;;;9.80;51.03;101866.25;5060386;28;45428;-58
2022/03/02 02:33:24;;;;;;;;;52.25;41.50;;;;;9.79;51.16;101855.00;5058221;28;45446;-58
2022/03/02 02:35:50;;;;;;;;;60.50;42.50;;;;;9.77;51.53;101855.00;5058468;28;46258;-58
2022/03/02 02:38:17;;;;;;;;;53.25;41.25;;;;;9.76;51.78;101850.69;5073553;28;45433;-59
2022/03/02 02:40:43;;;;;;;;;55.50;42.75;;;;;9.75;51.38;101853.31;5058671;28;45465;-59
2022/03/02 02:43:08;;;;;;;;;52.75;42.00;;;;;9.73;51.56;101845.53;5058352;28;46319;-58
2022/03/02 02:45:34;;;;;;;;;56.50;38.75;;;;;9.72;51.25;101850.72;5055405;28;45648;-58
2022/03/02 02:47:59;;;;;;;;;31.25;31.25;;;;;9.71;51.33;101846.41;5057526;28;45426;-58
2022/03/02 02:50:31;;;;;;;;;45.50;37.75;;;;;9.70;51.49;101836.91;5060090;28;45521;-59
2022/03/02 02:52:58;;;;;;;;;34.25;29.25;;;;;9.63;51.81;101827.44;5060398;28;45160;-59
2022/03/02 02:55:25;;;;;;;;;45.50;38.25;;;;;9.59;51.62;101830.91;5058569;28;45879;-58
2022/03/02 02:57:51;;;;;;;;;57.25;41.00;;;;;9.56;51.09;101820.53;5061055;28;45254;-58
2022/03/02 03:00:18;;;;;;;;;49.75;38.50;;;;;9.52;51.13;101819.72;5061258;28;45494;-58
2022/03/02 03:02:49;;;;;;;;;58.25;41.25;;;;;9.48;51.37;101815.41;5093727;27;45351;-58
2022/03/02 03:05:18;;;;;;;;;59.00;40.25;;;;;9.41;51.57;101809.41;5061325;28;46352;-58
2022/03/02 03:07:45;;;;;;;;;51.75;39.00;;;;;9.40;51.61;101812.84;5060708;28;45284;-58
2022/03/02 03:10:11;;;;;;;;;44.00;34.75;;;;;9.36;51.40;101810.28;5061335;28;45564;-58
2022/03/02 03:12:37;;;;;;;;;48.75;37.25;;;;;9.32;52.04;101801.66;5060991;28;45170;-58
2022/03/02 03:15:05;;;;;;;;;51.50;38.25;;;;;9.26;51.65;101801.69;5060944;28;45695;-58
2022/03/02 03:17:30;;;;;;;;;50.25;40.00;;;;;9.20;52.55;101801.69;5059482;28;45287;-59
2022/03/02 03:19:56;;;;;;;;;54.50;40.75;;;;;9.18;52.19;101800.00;5060593;28;45334;-59
2022/03/02 03:22:21;;;;;;;;;48.50;37.50;;;;;9.15;52.03;101812.09;5060367;28;45524;-58
2022/03/02 03:24:47;;;;;;;;;52.25;39.25;;;;;9.14;52.25;101806.94;5060969;28;46568;-59
2022/03/02 03:27:12;;;;;;;;;50.00;35.50;;;;;9.13;52.11;101807.81;5060802;28;45408;-58
2022/03/02 03:29:38;;;;;;;;;46.25;37.00;;;;;9.13;52.19;101808.66;5061021;28;45328;-58
2022/03/02 03:32:04;;;;;;;;;51.75;40.00;;;;;9.13;51.92;101810.38;5060621;28;45624;-60
2022/03/02 03:34:30;;;;;;;;;51.50;37.25;;;;;9.12;51.78;101800.88;5060833;28;45431;-59
2022/03/02 03:36:55;;;;;;;;;54.50;39.50;;;;;9.10;52.17;101800.91;5060390;28;45375;-58
2022/03/02 03:39:21;;;;;;;;;48.25;32.25;;;;;9.11;52.26;101805.22;5060866;28;45476;-58
2022/03/02 03:41:46;;;;;;;;;52.50;37.50;;;;;9.09;52.09;101800.91;5060544;28;45212;-58
2022/03/02 03:44:11;;;;;;;;;52.50;41.00;;;;;9.06;52.18;101799.19;5060380;28;45652;-59
2022/03/02 03:46:37;;;;;;;;;46.25;39.25;;;;;9.05;52.06;101797.47;5060123;28;45413;-59
2022/03/02 03:49:03;;;;;;;;;47.50;38.00;;;;;9.04;52.71;101798.34;5060807;28;45298;-59
2022/03/02 03:51:28;;;;;;;;;48.25;37.00;;;;;9.03;52.20;101794.03;5060103;28;45275;-59
2022/03/02 03:53:54;;;;;;;;;55.75;42.00;;;;;9.00;52.08;101786.22;5060228;28;45648;-59
2022/03/02 03:56:19;;;;;;;;;50.25;39.50;;;;;9.00;52.67;101794.00;5058241;28;45767;-59
2022/03/02 03:58:45;;;;;;;;;53.25;40.50;;;;;8.98;52.68;101789.72;5058475;28;45331;-59
2022/03/02 04:01:10;;;;;;;;;55.50;40.25;;;;;8.96;52.55;101789.72;5059479;28;45623;-59
2022/03/02 04:03:36;;;;;;;;;57.00;43.25;;;;;8.97;52.36;101782.81;5060386;28;46619;-58
2022/03/02 04:06:02;;;;;;;;;53.25;41.25;;;;;8.97;52.81;101785.38;5060038;28;45466;-58
2022/03/02 04:08:28;;;;;;;;;46.50;39.25;;;;;8.97;52.47;101780.22;5060422;28;45302;-58
2022/03/02 04:10:53;;;;;;;;;47.50;39.00;;;;;8.93;52.25;101781.94;5059918;28;45350;-58
2022/03/02 04:13:19;;;;;;;;;44.75;32.25;;;;;8.90;52.44;101784.56;5060299;28;45783;-58
2022/03/02 04:15:44;;;;;;;;;52.25;42.00;;;;;8.89;52.71;101784.56;5059769;28;45284;-58
2022/03/02 04:18:10;;;;;;;;;41.25;34.00;;;;;8.86;52.77;101777.69;5060448;28;45850;-58
2022/03/02 04:20:35;;;;;;;;;50.50;38.50;;;;;8.82;53.25;101783.75;5059443;28;46287;-58
2022/03/02 04:23:02;;;;;;;;;57.50;41.50;;;;;8.85;52.67;101781.13;5059684;28;46475;-58
2022/03/02 04:25:28;;;;;;;;;46.75;37.00;;;;;8.84;52.90;101780.28;5059810;28;45165;-58
2022/03/02 04:27:54;;;;;;;;;54.25;40.25;;;;;8.84;53.50;101769.91;5060100;28;45248;-58
2022/03/02 04:30:20;;;;;;;;;49.50;38.00;;;;;8.87;53.40;101770.75;5059606;28;45310;-58
2022/03/02 04:32:46;;;;;;;;;50.00;39.00;;;;;8.86;53.17;101772.50;5059954;28;45329;-58
2022/03/02 04:35:12;;;;;;;;;58.00;40.50;;;;;8.84;53.59;101769.91;5059705;28;45785;-58
2022/03/02 04:37:39;;;;;;;;;47.75;38.00;;;;;8.86;53.23;101769.03;5059737;28;45291;-60
2022/03/02 04:40:07;;;;;;;;;51.00;41.00;;;;;8.86;53.24;101766.44;5059315;28;45315;-58
2022/03/02 04:42:33;;;;;;;;;60.00;41.75;;;;;8.83;53.44;101762.13;5059575;28;47782;-59
2022/03/02 04:44:58;;;;;;;;;50.25;39.25;;;;;8.80;53.55;101756.94;5059543;28;45236;-59
2022/03/02 04:47:24;;;;;;;;;50.75;37.50;;;;;8.78;53.54;101762.13;5059531;28;45418;-61
2022/03/02 04:49:50;;;;;;;;;47.75;37.00;;;;;8.77;53.68;101749.19;5058106;28;45452;-58
2022/03/02 04:52:15;;;;;;;;;55.00;41.00;;;;;8.78;53.49;101753.50;5058172;28;46870;-58
2022/03/02 04:57:25;;;;;;;;;48.25;40.75;;;;;8.75;53.68;101748.31;5059469;28;45433;-58
2022/03/02 04:59:51;;;;;;;;;46.00;41.25;;;;;8.75;54.05;101756.09;5056807;28;45464;-58
2022/03/02 05:02:17;;;;;;;;;49.75;39.00;;;;;8.75;54.36;101743.16;5059142;28;46047;-58
2022/03/02 05:04:42;;;;;;;;;57.75;43.25;;;;;8.75;53.85;101748.31;5059461;28;45394;-58
2022/03/02 05:07:08;;;;;;;;;54.75;40.25;;;;;8.76;53.90;101753.50;5059213;28;45427;-58
2022/03/02 05:09:33;;;;;;;;;61.75;43.50;;;;;8.76;54.08;101745.72;5059524;28;45334;-58
2022/03/02 05:11:58;;;;;;;;;54.75;40.75;;;;;8.78;54.03;101744.00;5062775;28;45345;-58
2022/03/02 05:14:24;;;;;;;;;59.00;40.50;;;;;8.79;53.64;101750.91;5062810;28;45348;-57
2022/03/02 05:16:50;;;;;;;;;57.75;42.00;;;;;8.80;53.54;101741.38;5062859;28;45555;-57
2022/03/02 05:19:15;;;;;;;;;47.75;39.25;;;;;8.80;53.79;101739.66;5078423;27;45259;-57
2022/03/02 05:21:41;;;;;;;;;52.50;39.25;;;;;8.77;53.62;101744.00;5062166;28;45304;-57
2022/03/02 05:24:06;;;;;;;;;49.00;40.00;;;;;8.77;53.68;101742.25;5062797;28;45359;-57
2022/03/02 05:26:33;;;;;;;;;52.50;41.00;;;;;8.77;53.72;101733.63;5062675;28;45413;-58
2022/03/02 05:28:58;;;;;;;;;52.00;40.50;;;;;8.76;54.13;101737.94;5062497;28;45216;-58
2022/03/02 05:31:24;;;;;;;;;54.75;42.00;;;;;8.74;53.99;101731.91;5062180;28;46730;-57
2022/03/02 05:33:51;;;;;;;;;44.25;38.00;;;;;8.73;53.62;101722.41;5062469;28;45315;-57
2022/03/02 05:36:17;;;;;;;;;55.25;39.50;;;;;8.75;53.68;101725.88;5062566;28;45345;-57
2022/03/02 05:38:42;;;;;;;;;53.75;40.75;;;;;8.76;53.72;101725.00;5062369;28;45272;-58
2022/03/02 05:41:07;;;;;;;;;54.00;40.50;;;;;8.78;53.88;101730.16;5062110;28;46028;-57
2022/03/02 05:43:33;;;;;;;;;55.50;42.25;;;;;8.77;53.76;101723.25;5062461;28;45362;-58
2022/03/02 05:45:58;;;;;;;;;56.50;40.25;;;;;8.77;53.78;101728.44;5062163;28;45450;-57
2022/03/02 05:48:23;;;;;;;;;43.25;34.25;;;;;8.78;53.50;101732.75;5061949;28;45299;-57
2022/03/02 05:50:49;;;;;;;;;53.25;41.25;;;;;8.75;53.74;101718.09;5062408;28;45290;-58
2022/03/02 05:53:14;;;;;;;;;60.00;46.00;;;;;8.75;53.39;101719.81;5061717;28;45326;-58
2022/03/02 05:55:39;;;;;;;;;38.25;34.00;;;;;8.75;53.62;101725.88;5062318;28;45283;-58
2022/03/02 05:58:04;;;;;;;;;49.75;41.00;;;;;8.74;53.26;101729.31;5061930;28;45774;-58
2022/03/02 06:00:30;;;;;;;;;54.75;37.00;;;;;8.72;53.49;101718.09;5062030;28;46419;-60
2022/03/02 06:02:55;;;;;;;;;56.25;38.75;;;;;8.72;53.55;101717.25;5059217;28;45319;-59
2022/03/02 06:05:21;;;;;;;;;56.75;42.50;;;;;8.71;53.31;101715.53;5062074;28;45403;-59
2022/03/02 06:07:46;;;;;;;;;54.75;39.50;;;;;8.70;53.22;101712.06;5061685;28;45608;-59
2022/03/02 06:10:13;;;;;;;;;49.00;40.50;;;;;8.72;53.58;101727.63;5060424;28;47068;-60
2022/03/02 06:12:39;;;;;;;;;56.25;39.00;;;;;8.73;53.61;101713.78;5061859;28;45330;-59
2022/03/02 06:15:07;;;;;;;;;54.50;41.00;;;;;8.72;53.34;101715.50;5061950;28;45296;-59
2022/03/02 06:17:32;;;;;;;;;59.50;44.50;;;;;8.69;53.31;101718.13;5061634;28;45320;-59
2022/03/02 06:19:58;;;;;;;;;52.75;39.00;;;;;8.69;53.61;101723.31;5061300;28;47320;-58
2022/03/02 06:22:25;;;;;;;;;53.75;38.75;;;;;8.68;53.63;101726.78;5060296;28;45387;-58
2022/03/02 06:24:53;;;;;;;;;53.50;44.00;;;;;8.69;53.09;101718.13;5061378;28;45501;-58
2022/03/02 06:27:21;;;;;;;;;52.00;39.75;;;;;8.68;53.54;101713.81;5061455;28;45500;-58
2022/03/02 06:29:47;;;;;;;;;44.75;37.00;;;;;8.69;53.25;101717.25;5060930;28;46299;-58
2022/03/02 06:32:12;;;;;;;;;49.50;41.00;;;;;8.71;53.26;101715.53;5061179;28;45469;-58
2022/03/02 06:34:38;;;;;;;;;57.00;39.50;;;;;8.73;53.07;101722.41;5061268;28;45334;-58
2022/03/02 06:37:06;;;;;;;;;38.25;28.75;;;;;8.70;53.18;101718.97;5061174;28;45322;-59
2022/03/02 06:39:31;;;;;;;;;56.00;40.25;;;;;8.67;53.27;101725.03;5060907;28;46663;-57
2022/03/02 06:42:23;;;;;;;;;53.75;39.50;;;;;8.66;53.18;101722.47;5061260;28;45256;-56
2022/03/02 06:45:07;;;;;;;;;56.25;41.00;;;;;8.62;53.21;101724.22;5061151;28;45490;-57
2022/03/02 06:47:40;;;;;;;;;52.75;41.50;;;;;8.61;53.61;101732.84;5060832;28;45325;-56
2022/03/02 06:50:10;;;;;;;;;63.25;40.25;;;;;8.62;53.19;101725.94;5060858;28;45208;-56
2022/03/02 06:52:41;;;;;;;;;45.50;34.25;;;;;8.61;53.36;101727.66;5060793;28;45315;-57
2022/03/02 06:55:10;;;;;;;;;42.00;33.00;;;;;8.65;53.41;101731.09;5060458;28;45452;-57
2022/03/02 06:57:36;;;;;;;;;50.75;43.00;;;;;8.68;53.70;101731.09;5060406;28;45363;-57
2022/03/02 07:00:16;;;;;;;;;35.25;30.25;;;;;8.69;53.21;101727.63;5059033;28;46817;-57
2022/03/02 07:02:45;;;;;;;;;54.75;40.25;;;;;8.72;53.55;101731.06;5059301;28;45952;-57
2022/03/02 07:05:11;;;;;;;;;56.75;38.25;;;;;8.76;53.41;101729.31;5058389;28;45331;-56
2022/03/02 07:07:38;;;;;;;;;46.25;40.25;;;;;8.78;53.30;101730.16;5060333;28;45277;-57
2022/03/02 07:10:05;;;;;;;;;53.50;39.00;;;;;8.79;52.90;101724.13;5060205;28;46664;-57
2022/03/02 07:12:31;;;;;;;;;42.75;36.00;;;;;8.78;52.73;101719.81;5059695;28;45671;-57
2022/03/02 07:14:57;;;;;;;;;49.50;33.75;;;;;8.82;52.73;101721.53;5060718;28;45370;-57
2022/03/02 07:17:23;;;;;;;;;47.75;40.50;;;;;8.81;52.65;101725.84;5060618;28;45263;-57
2022/03/02 07:19:50;;;;;;;;;56.25;42.00;;;;;8.83;52.68;101726.72;5060127;28;46782;-57
2022/03/02 07:22:17;;;;;;;;;45.50;38.75;;;;;8.81;52.89;101719.81;5059924;28;45706;-57
2022/03/02 07:24:52;;;;;;;;;43.25;33.00;;;;;8.85;52.95;101726.69;5060453;28;45281;-59
2022/03/02 07:27:18;;;;;;;;;46.75;37.50;;;;;8.86;52.94;101732.75;5047631;28;45300;-59
2022/03/02 07:29:48;;;;;;;;;48.25;36.25;;;;;8.85;52.29;101734.47;5060124;28;45712;-58
2022/03/02 07:32:16;;;;;;;;;49.25;39.00;;;;;8.88;52.79;101723.22;5060483;28;45411;-58
2022/03/02 07:34:42;;;;;;;;;46.25;38.75;;;;;8.94;52.38;101729.25;5060284;28;45399;-58
2022/03/02 07:37:09;;;;;;;;;45.00;39.25;;;;;8.97;52.61;101733.53;5059511;28;45521;-58
2022/03/02 07:39:35;;;;;;;;;45.25;37.25;;;;;9.02;52.45;101739.59;5059970;28;45271;-59
2022/03/02 07:42:03;;;;;;;;;48.00;39.75;;;;;9.06;52.01;101730.91;5060498;28;45813;-59
2022/03/02 07:44:28;;;;;;;;;56.50;42.25;;;;;9.11;52.46;101735.19;5059986;28;45254;-59
2022/03/02 07:46:54;;;;;;;;;50.00;38.75;;;;;9.18;52.12;101725.66;5058534;28;45413;-61
2022/03/02 07:49:20;;;;;;;;;52.00;40.75;;;;;9.23;52.05;101718.72;5059851;28;46479;-58
2022/03/02 07:51:46;;;;;;;;;52.50;39.75;;;;;9.27;51.95;101715.22;5060191;28;45853;-60
2022/03/02 07:54:14;;;;;;;;;54.00;41.00;;;;;9.31;52.14;101714.34;5058274;28;45319;-59
2022/03/02 07:56:40;;;;;;;;;46.25;38.00;;;;;9.40;51.89;101724.63;5060149;28;45497;-58
2022/03/02 07:59:07;;;;;;;;;48.75;38.25;;;;;9.49;51.30;101717.69;5058474;28;47186;-58
2022/03/02 08:01:35;;;;;;;;;55.50;43.25;;;;;9.59;51.79;101722.75;5059793;28;45370;-57
2022/03/02 08:04:04;;;;;;;;;52.75;37.00;;;;;9.69;50.91;101715.78;5059677;28;45337;-57
2022/03/02 08:06:31;;;;;;;;;49.00;39.00;;;;;9.75;50.71;101720.91;5056792;28;45732;-58
2022/03/02 08:08:57;;;;;;;;;59.25;43.00;;;;;9.81;50.07;101725.19;5059107;28;46138;-58
2022/03/02 08:11:23;;;;;;;;;46.75;39.50;;;;;9.83;50.47;101719.13;5059596;28;45374;-59
2022/03/02 08:13:48;;;;;;;;;43.50;35.25;;;;;9.90;50.48;101725.97;5059780;28;45303;-59
2022/03/02 08:16:16;;;;;;;;;50.00;32.50;;;;;9.96;49.78;101725.06;5059728;28;45404;-59
2022/03/02 08:18:41;;;;;;;;;51.25;42.25;;;;;9.98;50.18;101729.34;5059406;28;46431;-59
2022/03/02 08:21:09;;;;;;;;;54.25;39.25;;;;;10.01;49.46;101731.97;5057140;28;45485;-59
2022/03/02 08:23:39;;;;;;;;;50.00;39.00;;;;;10.09;50.11;101725.81;5059359;28;46850;-59
2022/03/02 08:26:05;;;;;;;;;59.25;41.25;;;;;10.19;49.65;101730.03;5075058;27;45456;-62
2022/03/02 08:28:33;;;;;;;;;48.75;35.00;;;;;10.27;49.54;101730.88;5059082;28;45454;-60
2022/03/02 08:30:59;;;;;;;;;46.25;36.50;;;;;10.31;49.06;101730.81;5059067;28;45274;-59
2022/03/02 08:33:27;;;;;;;;;34.00;26.00;;;;;10.35;48.99;101729.03;5091180;27;45378;-59
2022/03/02 08:35:54;;;;;;;;;36.00;29.50;;;;;10.37;49.17;101727.28;5089982;27;46329;-59
2022/03/02 08:38:20;;;;;;;;;55.75;38.75;;;;;10.37;49.20;101724.69;5055983;28;46337;-59
2022/03/02 08:40:46;;;;;;;;;46.50;37.25;;;;;10.35;48.36;101729.03;5058810;28;45492;-62
2022/03/02 08:43:15;;;;;;;;;49.00;38.25;;;;;10.37;48.96;101722.09;5058716;28;45540;-63
2022/03/02 08:45:49;;;;;;;;;48.75;38.50;;;;;10.44;48.64;101723.75;5054969;28;45232;-64
2022/03/02 08:48:15;;;;;;;;;47.75;37.25;;;;;10.54;48.74;101725.34;5058214;28;46162;-63
2022/03/02 08:50:42;;;;;;;;;51.50;38.50;;;;;10.59;48.05;101728.75;5058622;28;45300;-62
2022/03/02 08:53:12;;;;;;;;;59.50;40.00;;;;;10.63;48.35;101722.66;5058453;28;46436;-65
2022/03/02 08:55:39;;;;;;;;;48.75;38.25;;;;;10.71;48.21;101726.91;5092027;27;45473;-64
2022/03/02 08:58:04;;;;;;;;;45.00;37.50;;;;;10.79;47.89;101722.44;5059265;28;45204;-63
2022/03/02 09:00:32;;;;;;;;;44.25;37.75;;;;;10.86;47.91;101724.13;5059289;28;45233;-58
2022/03/02 09:02:59;;;;;;;;;55.25;41.50;;;;;10.95;48.04;101729.19;5059117;28;45374;-58
2022/03/02 09:05:28;;;;;;;;;58.00;42.25;;;;;11.02;47.67;101727.38;5059367;28;45315;-59
2022/03/02 09:07:54;;;;;;;;;52.50;36.75;;;;;11.08;46.91;101715.16;5059023;28;45267;-59
2022/03/02 09:10:19;;;;;;;;;53.00;39.50;;;;;11.16;47.36;101708.06;5056454;28;45750;-60
2022/03/02 09:12:45;;;;;;;;;44.00;34.50;;;;;11.29;47.13;101708.78;5058762;28;45313;-60
2022/03/02 09:15:11;;;;;;;;;55.50;38.25;;;;;11.36;46.70;101712.13;5058499;28;45350;-60
2022/03/02 09:17:36;;;;;;;;;52.25;39.75;;;;;11.40;46.52;101701.63;5058842;28;46122;-62
2022/03/02 09:20:04;;;;;;;;;46.50;39.00;;;;;11.46;45.96;101708.50;5058541;28;45390;-60
2022/03/02 09:22:29;;;;;;;;;51.75;38.50;;;;;11.52;46.31;101703.22;5045508;28;45264;-60
2022/03/02 09:24:56;;;;;;;;;51.00;37.50;;;;;11.62;45.89;101699.59;5057444;28;45318;-60
2022/03/02 09:27:27;;;;;;;;;41.75;36.00;;;;;11.65;45.67;101686.50;5058513;28;46473;-60
2022/03/02 09:29:53;;;;;;;;;49.00;38.50;;;;;11.72;46.05;101685.50;5058634;28;45325;-62
2022/03/02 09:32:22;;;;;;;;;53.00;39.25;;;;;11.79;45.54;101687.16;5059048;28;45366;-60
2022/03/02 09:34:50;;;;;;;;;44.75;37.00;;;;;11.92;45.49;101693.00;5058834;28;45214;-60
2022/03/02 09:37:17;;;;;;;;;54.25;38.75;;;;;12.01;45.57;101697.19;5058561;28;47272;-58
2022/03/02 09:39:43;;;;;;;;;42.25;34.50;;;;;12.14;45.07;101688.25;5058565;28;45895;-58
2022/03/02 09:42:15;;;;;;;;;53.50;39.50;;;;;12.26;45.05;101690.66;5058881;28;45330;-58
2022/03/02 09:44:47;;;;;;;;;51.50;37.75;;;;;12.39;45.11;101694.72;5058483;28;45242;-60
2022/03/02 09:47:19;;;;;;;;;48.25;36.75;;;;;12.53;44.14;101693.59;5058005;28;45437;-58
2022/03/02 09:49:48;;;;;;;;;49.00;37.00;;;;;12.56;44.26;101690.91;5057152;28;45991;-60
2022/03/02 09:52:21;;;;;;;;;54.00;39.25;;;;;12.64;44.10;101696.84;5058525;28;45334;-58
2022/03/02 09:54:58;;;;;;;;;52.75;37.75;;;;;12.69;43.88;101692.41;5058266;28;45213;-60
2022/03/02 09:57:23;;;;;;;;;40.00;36.00;;;;;12.67;44.33;101689.81;5058268;28;47154;-62
2022/03/02 09:59:56;;;;;;;;;45.00;37.50;;;;;12.64;43.73;101694.25;5061823;27;45340;-59
2022/03/02 10:02:43;;;;;;;;;51.50;37.50;;;;;12.64;43.55;101696.84;5061691;28;45473;-59
2022/03/02 10:05:23;;;;;;;;;54.75;37.00;;;;;12.67;43.88;101697.66;5061751;28;45273;-58
2022/03/02 10:08:04;;;;;;;;;52.50;37.50;;;;;12.76;43.61;101693.97;5060771;28;45451;-60
2022/03/02 10:10:33;;;;;;;;;49.75;36.00;;;;;12.82;43.53;101693.84;5061466;28;46014;-59
2022/03/02 10:13:02;;;;;;;;;54.00;38.25;;;;;12.87;43.14;101686.78;5059130;28;45374;-59
2022/03/02 10:15:29;;;;;;;;;47.75;38.00;;;;;12.91;42.88;101685.81;5061280;28;45563;-61
2022/03/02 10:17:59;;;;;;;;;45.00;37.00;;;;;12.98;43.14;101691.75;5062185;28;46512;-61
2022/03/02 10:20:28;;;;;;;;;49.00;37.25;;;;;13.02;42.86;101686.47;5059709;28;45429;-59
2022/03/02 10:23:22;;;;;;;;;45.75;37.00;;;;;13.06;42.90;101679.41;5059991;28;45466;-58
2022/03/02 10:26:15;;;;;;;;;52.00;39.75;;;;;13.15;43.10;101679.19;5059969;28;45304;-60
2022/03/02 10:29:11;;;;;;;;;52.75;41.00;;;;;13.21;43.02;101675.59;5058768;28;46875;-59
2022/03/02 10:32:08;;;;;;;;;50.75;37.75;;;;;13.26;42.75;101669.41;5060462;28;45358;-60
2022/03/02 10:34:52;;;;;;;;;50.25;38.50;;;;;13.36;42.68;101664.81;5059789;28;45431;-63
2022/03/02 10:37:20;;;;;;;;;55.00;41.25;;;;;13.53;42.46;101669.63;5059307;28;45422;-64
2022/03/02 10:40:09;;;;;;;;;51.00;38.00;;;;;13.67;41.72;101663.16;5092983;27;47214;-61
2022/03/02 10:42:58;;;;;;;;;51.50;37.75;;;;;13.78;42.12;101665.47;5059118;28;45536;-64
2022/03/02 10:45:25;;;;;;;;;53.75;41.00;;;;;13.94;41.92;101655.50;5061188;28;45504;-66
2022/03/02 10:48:14;;;;;;;;;60.00;42.00;;;;;14.12;41.51;101662.84;5060310;28;45454;-65
2022/03/02 10:50:42;;;;;;;;;54.75;41.00;;;;;14.30;41.75;101657.09;5060857;28;45304;-61
2022/03/02 10:53:19;;;;;;;;;54.75;39.25;;;;;14.38;41.65;101656.00;5059979;28;45317;-60
2022/03/02 10:55:46;;;;;;;;;51.50;38.25;;;;;14.44;40.50;101650.66;5058537;28;45723;-60
2022/03/02 10:58:14;;;;;;;;;44.25;37.25;;;;;14.52;40.68;101641.66;5055154;28;45514;-60
2022/03/02 11:00:40;;;;;;;;;48.50;35.75;;;;;14.67;40.90;101647.38;5056839;28;48267;-61
2022/03/02 11:03:07;;;;;;;;;40.25;30.75;;;;;14.79;40.84;101647.81;5057629;28;45418;-61
2022/03/02 11:05:34;;;;;;;;;45.25;35.75;;;;;14.83;38.88;101638.16;5058957;28;45358;-60
2022/03/02 11:08:02;;;;;;;;;52.25;35.50;;;;;14.78;40.28;101642.66;5059002;28;45463;-60
2022/03/02 11:10:33;;;;;;;;;50.75;38.50;;;;;14.88;39.84;101634.47;5059745;27;46842;-61
2022/03/02 11:13:12;;;;;;;;;50.25;39.75;;;;;15.05;39.78;101643.56;5059039;28;45800;-63
2022/03/02 11:16:04;;;;;;;;;42.00;34.50;;;;;15.26;39.59;101636.78;5058059;28;45385;-62
2022/03/02 11:18:40;;;;;;;;;48.50;35.25;;;;;15.40;39.69;101631.94;5055220;28;45713;-62